sensor_id;sensor_type;location;lat;lon;timestamp;P1;durP1;ratioP1;P2;durP2;ratioP2
45618;SDS011;31343;47.520;19.144;2022-10-16T00:01:25;9.18;;;5.30;;
45618;SDS011;31343;47.520;19.144;2022-10-16T00:03:52;8.43;;;5.63;;
45618;SDS011;31343;47.520;19.144;2022-10-16T00:06:20;7.63;;;4.60;;
45618;SDS011;31343;47.520;19.144;2022-10-16T00:08:46;7.18;;;5.68;;
45618;SDS011;31343;47.520;19.144;2022-10-16T00:11:14;7.60;;;4.85;;
45618;SDS011;31343;47.520;19.144;2022-10-16T00:13:51;9.77;;;5.95;;
45618;SDS011;31343;47.520;19.144;2022-10-16T00:16:19;10.68;;;6.35;;
45618;SDS011;31343;47.520;19.144;2022-10-16T00:18:45;6.68;;;4.95;;
45618;SDS011;31343;47.520;19.144;2022-10-16T00:21:16;8.43;;;5.78;;
45618;SDS011;31343;47.520;19.144;2022-10-16T00:23:50;6.53;;;4.95;;
45618;SDS011;31343;47.520;19.144;2022-10-16T00:26:17;8.15;;;5.30;;
45618;SDS011;31343;47.520;19.144;2022-10-16T00:28:45;8.65;;;5.13;;
45618;SDS011;31343;47.520;19.144;2022-10-16T00:31:15;10.15;;;5.03;;
45618;SDS011;31343;47.520;19.144;2022-10-16T00:33:42;8.10;;;5.28;;
45618;SDS011;31343;47.520;19.144;2022-10-16T00:36:10;7.85;;;5.00;;
45618;SDS011;31343;47.520;19.144;2022-10-16T00:38:37;7.65;;;4.90;;
45618;SDS011;31343;47.520;19.144;2022-10-16T00:41:04;8.23;;;4.80;;
45618;SDS011;31343;47.520;19.144;2022-10-16T00:43:41;8.90;;;5.13;;
45618;SDS011;31343;47.520;19.144;2022-10-16T00:46:20;7.45;;;5.20;;
45618;SDS011;31343;47.520;19.144;2022-10-16T00:48:52;7.70;;;4.90;;
45618;SDS011;31343;47.520;19.144;2022-10-16T00:51:21;6.30;;;4.82;;
45618;SDS011;31343;47.520;19.144;2022-10-16T00:53:52;6.63;;;4.90;;
45618;SDS011;31343;47.520;19.144;2022-10-16T00:56:17;7.63;;;4.63;;
45618;SDS011;31343;47.520;19.144;2022-10-16T00:58:43;7.47;;;4.72;;
45618;SDS011;31343;47.520;19.144;2022-10-16T01:01:09;7.57;;;4.47;;
45618;SDS011;31343;47.520;19.144;2022-10-16T01:03:36;7.93;;;4.72;;
45618;SDS011;31343;47.520;19.144;2022-10-16T01:11:35;7.18;;;4.57;;
45618;SDS011;31343;47.520;19.144;2022-10-16T01:14:22;8.23;;;4.40;;
45618;SDS011;31343;47.520;19.144;2022-10-16T01:17:00;12.60;;;5.35;;
45618;SDS011;31343;47.520;19.144;2022-10-16T01:22:33;7.47;;;4.70;;
45618;SDS011;31343;47.520;19.144;2022-10-16T01:25:35;8.18;;;5.05;;
45618;SDS011;31343;47.520;19.144;2022-10-16T01:28:19;9.00;;;4.90;;
45618;SDS011;31343;47.520;19.144;2022-10-16T01:30:48;8.98;;;5.40;;
45618;SDS011;31343;47.520;19.144;2022-10-16T01:33:23;8.77;;;4.88;;
45618;SDS011;31343;47.520;19.144;2022-10-16T01:35:54;8.63;;;4.65;;
45618;SDS011;31343;47.520;19.144;2022-10-16T01:38:25;6.50;;;4.95;;
45618;SDS011;31343;47.520;19.144;2022-10-16T01:40:59;10.10;;;5.20;;
45618;SDS011;31343;47.520;19.144;2022-10-16T01:43:49;6.57;;;4.45;;
45618;SDS011;31343;47.520;19.144;2022-10-16T01:46:24;6.60;;;4.80;;
45618;SDS011;31343;47.520;19.144;2022-10-16T01:48:51;7.47;;;4.78;;
45618;SDS011;31343;47.520;19.144;2022-10-16T01:51:18;7.43;;;4.72;;
45618;SDS011;31343;47.520;19.144;2022-10-16T01:53:48;8.07;;;5.05;;
45618;SDS011;31343;47.520;19.144;2022-10-16T01:56:17;8.45;;;5.57;;
45618;SDS011;31343;47.520;19.144;2022-10-16T01:58:47;8.23;;;5.28;;
45618;SDS011;31343;47.520;19.144;2022-10-16T02:01:26;7.45;;;4.93;;
45618;SDS011;31343;47.520;19.144;2022-10-16T02:03:55;7.68;;;4.63;;
45618;SDS011;31343;47.520;19.144;2022-10-16T02:06:25;8.50;;;4.75;;
45618;SDS011;31343;47.520;19.144;2022-10-16T02:08:51;9.00;;;4.65;;
45618;SDS011;31343;47.520;19.144;2022-10-16T02:11:16;8.15;;;4.90;;
45618;SDS011;31343;47.520;19.144;2022-10-16T02:13:46;8.18;;;4.53;;
45618;SDS011;31343;47.520;19.144;2022-10-16T02:16:16;7.87;;;4.70;;
45618;SDS011;31343;47.520;19.144;2022-10-16T02:18:42;6.78;;;4.97;;
45618;SDS011;31343;47.520;19.144;2022-10-16T02:21:28;6.32;;;4.85;;
45618;SDS011;31343;47.520;19.144;2022-10-16T02:24:03;7.78;;;4.88;;
45618;SDS011;31343;47.520;19.144;2022-10-16T02:26:35;7.05;;;4.82;;
45618;SDS011;31343;47.520;19.144;2022-10-16T02:29:10;9.38;;;4.07;;
45618;SDS011;31343;47.520;19.144;2022-10-16T02:31:41;8.13;;;5.20;;
45618;SDS011;31343;47.520;19.144;2022-10-16T02:34:13;9.45;;;5.32;;
45618;SDS011;31343;47.520;19.144;2022-10-16T02:36:41;8.45;;;4.45;;
45618;SDS011;31343;47.520;19.144;2022-10-16T02:39:07;7.30;;;4.65;;
45618;SDS011;31343;47.520;19.144;2022-10-16T02:41:34;8.05;;;5.30;;
45618;SDS011;31343;47.520;19.144;2022-10-16T02:44:00;10.02;;;4.93;;
45618;SDS011;31343;47.520;19.144;2022-10-16T02:46:26;7.85;;;5.20;;
45618;SDS011;31343;47.520;19.144;2022-10-16T02:48:52;8.13;;;5.05;;
45618;SDS011;31343;47.520;19.144;2022-10-16T02:51:18;8.43;;;5.05;;
45618;SDS011;31343;47.520;19.144;2022-10-16T02:53:43;8.15;;;5.43;;
45618;SDS011;31343;47.520;19.144;2022-10-16T02:56:09;8.38;;;4.85;;
45618;SDS011;31343;47.520;19.144;2022-10-16T02:58:35;8.15;;;4.78;;
45618;SDS011;31343;47.520;19.144;2022-10-16T03:01:01;8.63;;;4.88;;
45618;SDS011;31343;47.520;19.144;2022-10-16T03:03:26;7.35;;;4.50;;
45618;SDS011;31343;47.520;19.144;2022-10-16T03:05:52;6.85;;;5.28;;
45618;SDS011;31343;47.520;19.144;2022-10-16T03:08:19;8.90;;;5.05;;
45618;SDS011;31343;47.520;19.144;2022-10-16T03:10:48;7.07;;;5.07;;
45618;SDS011;31343;47.520;19.144;2022-10-16T03:13:14;7.40;;;5.18;;
45618;SDS011;31343;47.520;19.144;2022-10-16T03:15:40;6.40;;;4.68;;
45618;SDS011;31343;47.520;19.144;2022-10-16T03:18:05;5.35;;;3.90;;
45618;SDS011;31343;47.520;19.144;2022-10-16T03:20:33;8.85;;;4.57;;
45618;SDS011;31343;47.520;19.144;2022-10-16T03:22:58;7.85;;;4.72;;
45618;SDS011;31343;47.520;19.144;2022-10-16T03:25:24;7.70;;;4.13;;
45618;SDS011;31343;47.520;19.144;2022-10-16T03:27:51;8.15;;;5.28;;
45618;SDS011;31343;47.520;19.144;2022-10-16T03:30:17;8.35;;;4.63;;
45618;SDS011;31343;47.520;19.144;2022-10-16T03:32:43;7.15;;;4.45;;
45618;SDS011;31343;47.520;19.144;2022-10-16T03:35:09;9.63;;;4.97;;
45618;SDS011;31343;47.520;19.144;2022-10-16T03:37:35;6.70;;;4.07;;
45618;SDS011;31343;47.520;19.144;2022-10-16T03:40:01;6.85;;;4.50;;
45618;SDS011;31343;47.520;19.144;2022-10-16T03:42:27;8.82;;;5.07;;
45618;SDS011;31343;47.520;19.144;2022-10-16T03:44:53;7.55;;;4.72;;
45618;SDS011;31343;47.520;19.144;2022-10-16T03:47:19;6.40;;;4.25;;
45618;SDS011;31343;47.520;19.144;2022-10-16T03:49:49;8.70;;;4.93;;
45618;SDS011;31343;47.520;19.144;2022-10-16T03:52:15;10.35;;;4.70;;
45618;SDS011;31343;47.520;19.144;2022-10-16T03:54:41;7.65;;;4.60;;
45618;SDS011;31343;47.520;19.144;2022-10-16T03:57:07;7.93;;;4.95;;
45618;SDS011;31343;47.520;19.144;2022-10-16T03:59:33;9.35;;;4.38;;
45618;SDS011;31343;47.520;19.144;2022-10-16T04:01:58;9.50;;;4.93;;
45618;SDS011;31343;47.520;19.144;2022-10-16T04:04:24;8.18;;;4.82;;
45618;SDS011;31343;47.520;19.144;2022-10-16T04:06:50;9.00;;;5.10;;
45618;SDS011;31343;47.520;19.144;2022-10-16T04:09:16;8.00;;;5.28;;
45618;SDS011;31343;47.520;19.144;2022-10-16T04:11:42;8.95;;;5.10;;
45618;SDS011;31343;47.520;19.144;2022-10-16T04:14:08;9.43;;;5.15;;
45618;SDS011;31343;47.520;19.144;2022-10-16T04:16:34;6.55;;;4.38;;
45618;SDS011;31343;47.520;19.144;2022-10-16T04:18:59;9.13;;;5.03;;
45618;SDS011;31343;47.520;19.144;2022-10-16T04:21:25;8.38;;;5.22;;
45618;SDS011;31343;47.520;19.144;2022-10-16T04:23:51;9.30;;;5.53;;
45618;SDS011;31343;47.520;19.144;2022-10-16T04:26:17;9.32;;;5.65;;
45618;SDS011;31343;47.520;19.144;2022-10-16T04:28:43;10.60;;;5.63;;
45618;SDS011;31343;47.520;19.144;2022-10-16T04:31:08;5.85;;;4.20;;
45618;SDS011;31343;47.520;19.144;2022-10-16T04:33:34;7.05;;;4.70;;
45618;SDS011;31343;47.520;19.144;2022-10-16T04:36:00;7.10;;;4.65;;
45618;SDS011;31343;47.520;19.144;2022-10-16T04:38:27;7.80;;;4.80;;
45618;SDS011;31343;47.520;19.144;2022-10-16T04:40:52;6.75;;;4.43;;
45618;SDS011;31343;47.520;19.144;2022-10-16T04:43:18;7.72;;;4.93;;
45618;SDS011;31343;47.520;19.144;2022-10-16T04:45:44;7.38;;;4.50;;
45618;SDS011;31343;47.520;19.144;2022-10-16T04:48:11;8.30;;;4.88;;
45618;SDS011;31343;47.520;19.144;2022-10-16T04:50:37;9.48;;;4.35;;
45618;SDS011;31343;47.520;19.144;2022-10-16T04:53:03;6.28;;;4.63;;
45618;SDS011;31343;47.520;19.144;2022-10-16T04:55:28;8.32;;;4.78;;
45618;SDS011;31343;47.520;19.144;2022-10-16T04:57:54;8.88;;;5.55;;
45618;SDS011;31343;47.520;19.144;2022-10-16T05:00:20;6.95;;;5.20;;
45618;SDS011;31343;47.520;19.144;2022-10-16T05:02:47;8.60;;;4.82;;
45618;SDS011;31343;47.520;19.144;2022-10-16T05:05:14;7.13;;;4.70;;
45618;SDS011;31343;47.520;19.144;2022-10-16T05:07:40;7.00;;;4.78;;
45618;SDS011;31343;47.520;19.144;2022-10-16T05:10:06;9.13;;;6.00;;
45618;SDS011;31343;47.520;19.144;2022-10-16T05:12:32;8.68;;;5.72;;
45618;SDS011;31343;47.520;19.144;2022-10-16T05:14:57;7.47;;;4.78;;
45618;SDS011;31343;47.520;19.144;2022-10-16T05:17:24;7.13;;;5.15;;
45618;SDS011;31343;47.520;19.144;2022-10-16T05:19:51;9.43;;;5.47;;
45618;SDS011;31343;47.520;19.144;2022-10-16T05:22:17;8.65;;;6.30;;
45618;SDS011;31343;47.520;19.144;2022-10-16T05:24:42;8.23;;;5.32;;
45618;SDS011;31343;47.520;19.144;2022-10-16T05:27:09;10.85;;;6.32;;
45618;SDS011;31343;47.520;19.144;2022-10-16T05:29:35;10.80;;;6.40;;
45618;SDS011;31343;47.520;19.144;2022-10-16T05:32:01;9.65;;;5.78;;
45618;SDS011;31343;47.520;19.144;2022-10-16T05:34:27;8.70;;;5.60;;
45618;SDS011;31343;47.520;19.144;2022-10-16T05:36:53;8.15;;;5.57;;
45618;SDS011;31343;47.520;19.144;2022-10-16T05:39:18;10.07;;;6.00;;
45618;SDS011;31343;47.520;19.144;2022-10-16T05:41:44;8.20;;;4.97;;
45618;SDS011;31343;47.520;19.144;2022-10-16T05:44:11;8.63;;;5.00;;
45618;SDS011;31343;47.520;19.144;2022-10-16T05:46:37;10.45;;;6.22;;
45618;SDS011;31343;47.520;19.144;2022-10-16T05:49:02;9.05;;;5.75;;
45618;SDS011;31343;47.520;19.144;2022-10-16T05:51:28;10.75;;;6.30;;
45618;SDS011;31343;47.520;19.144;2022-10-16T05:53:53;10.13;;;6.43;;
45618;SDS011;31343;47.520;19.144;2022-10-16T05:56:20;9.10;;;6.13;;
45618;SDS011;31343;47.520;19.144;2022-10-16T05:58:46;9.68;;;4.97;;
45618;SDS011;31343;47.520;19.144;2022-10-16T06:01:13;9.70;;;5.97;;
45618;SDS011;31343;47.520;19.144;2022-10-16T06:03:42;8.93;;;5.95;;
45618;SDS011;31343;47.520;19.144;2022-10-16T06:06:11;8.25;;;5.57;;
45618;SDS011;31343;47.520;19.144;2022-10-16T06:08:39;7.97;;;5.20;;
45618;SDS011;31343;47.520;19.144;2022-10-16T06:11:06;9.07;;;5.65;;
45618;SDS011;31343;47.520;19.144;2022-10-16T06:13:34;8.30;;;5.40;;
45618;SDS011;31343;47.520;19.144;2022-10-16T06:16:00;7.13;;;5.05;;
45618;SDS011;31343;47.520;19.144;2022-10-16T06:18:27;8.60;;;5.63;;
45618;SDS011;31343;47.520;19.144;2022-10-16T06:20:53;8.00;;;4.72;;
45618;SDS011;31343;47.520;19.144;2022-10-16T06:23:20;6.78;;;4.63;;
45618;SDS011;31343;47.520;19.144;2022-10-16T06:25:46;6.93;;;4.85;;
45618;SDS011;31343;47.520;19.144;2022-10-16T06:28:13;9.45;;;5.47;;
45618;SDS011;31343;47.520;19.144;2022-10-16T06:30:39;7.25;;;4.80;;
45618;SDS011;31343;47.520;19.144;2022-10-16T06:33:05;7.60;;;4.43;;
45618;SDS011;31343;47.520;19.144;2022-10-16T06:35:30;6.68;;;4.68;;
45618;SDS011;31343;47.520;19.144;2022-10-16T06:37:57;6.70;;;4.75;;
45618;SDS011;31343;47.520;19.144;2022-10-16T06:40:23;7.70;;;5.00;;
45618;SDS011;31343;47.520;19.144;2022-10-16T06:42:49;8.73;;;5.75;;
45618;SDS011;31343;47.520;19.144;2022-10-16T06:45:15;7.15;;;4.45;;
45618;SDS011;31343;47.520;19.144;2022-10-16T06:47:40;7.93;;;4.78;;
45618;SDS011;31343;47.520;19.144;2022-10-16T06:50:06;8.05;;;4.57;;
45618;SDS011;31343;47.520;19.144;2022-10-16T06:52:32;7.05;;;4.85;;
45618;SDS011;31343;47.520;19.144;2022-10-16T06:54:59;5.90;;;4.22;;
45618;SDS011;31343;47.520;19.144;2022-10-16T06:57:25;7.00;;;4.63;;
45618;SDS011;31343;47.520;19.144;2022-10-16T06:59:51;6.72;;;4.65;;
45618;SDS011;31343;47.520;19.144;2022-10-16T07:02:16;7.18;;;4.60;;
45618;SDS011;31343;47.520;19.144;2022-10-16T07:04:42;6.68;;;4.70;;
45618;SDS011;31343;47.520;19.144;2022-10-16T07:07:08;6.90;;;5.15;;
45618;SDS011;31343;47.520;19.144;2022-10-16T07:09:33;8.32;;;5.05;;
45618;SDS011;31343;47.520;19.144;2022-10-16T07:11:59;8.18;;;5.05;;
45618;SDS011;31343;47.520;19.144;2022-10-16T07:14:25;6.70;;;4.38;;
45618;SDS011;31343;47.520;19.144;2022-10-16T07:16:50;7.00;;;4.50;;
45618;SDS011;31343;47.520;19.144;2022-10-16T07:19:17;6.72;;;4.68;;
45618;SDS011;31343;47.520;19.144;2022-10-16T07:21:43;6.68;;;4.13;;
45618;SDS011;31343;47.520;19.144;2022-10-16T07:24:12;7.60;;;5.20;;
45618;SDS011;31343;47.520;19.144;2022-10-16T07:26:40;7.25;;;4.63;;
45618;SDS011;31343;47.520;19.144;2022-10-16T07:29:11;8.38;;;4.70;;
45618;SDS011;31343;47.520;19.144;2022-10-16T07:31:39;7.57;;;4.65;;
45618;SDS011;31343;47.520;19.144;2022-10-16T07:34:05;7.40;;;5.07;;
45618;SDS011;31343;47.520;19.144;2022-10-16T07:36:30;9.70;;;5.18;;
45618;SDS011;31343;47.520;19.144;2022-10-16T07:38:56;6.72;;;4.68;;
45618;SDS011;31343;47.520;19.144;2022-10-16T07:41:22;7.72;;;4.57;;
45618;SDS011;31343;47.520;19.144;2022-10-16T07:43:49;7.88;;;5.30;;
45618;SDS011;31343;47.520;19.144;2022-10-16T07:46:16;7.50;;;4.82;;
45618;SDS011;31343;47.520;19.144;2022-10-16T07:48:43;9.27;;;5.38;;
45618;SDS011;31343;47.520;19.144;2022-10-16T07:51:12;7.45;;;4.95;;
45618;SDS011;31343;47.520;19.144;2022-10-16T07:53:43;7.35;;;5.40;;
45618;SDS011;31343;47.520;19.144;2022-10-16T07:56:09;8.60;;;5.28;;
45618;SDS011;31343;47.520;19.144;2022-10-16T07:58:35;9.43;;;5.18;;
45618;SDS011;31343;47.520;19.144;2022-10-16T08:01:05;7.30;;;4.40;;
45618;SDS011;31343;47.520;19.144;2022-10-16T08:03:33;10.10;;;6.68;;
45618;SDS011;31343;47.520;19.144;2022-10-16T08:05:59;8.45;;;5.15;;
45618;SDS011;31343;47.520;19.144;2022-10-16T08:08:26;6.82;;;4.57;;
45618;SDS011;31343;47.520;19.144;2022-10-16T08:10:52;8.20;;;4.90;;
45618;SDS011;31343;47.520;19.144;2022-10-16T08:13:17;8.07;;;5.20;;
45618;SDS011;31343;47.520;19.144;2022-10-16T08:15:43;8.57;;;4.90;;
45618;SDS011;31343;47.520;19.144;2022-10-16T08:18:11;8.02;;;4.72;;
45618;SDS011;31343;47.520;19.144;2022-10-16T08:20:38;6.97;;;4.80;;
45618;SDS011;31343;47.520;19.144;2022-10-16T08:23:05;7.43;;;4.57;;
45618;SDS011;31343;47.520;19.144;2022-10-16T08:25:33;8.38;;;4.85;;
45618;SDS011;31343;47.520;19.144;2022-10-16T08:28:02;7.38;;;5.28;;
45618;SDS011;31343;47.520;19.144;2022-10-16T08:30:29;7.22;;;4.50;;
45618;SDS011;31343;47.520;19.144;2022-10-16T08:32:55;8.02;;;5.28;;
45618;SDS011;31343;47.520;19.144;2022-10-16T08:35:21;9.38;;;5.25;;
45618;SDS011;31343;47.520;19.144;2022-10-16T08:37:47;7.25;;;4.47;;
45618;SDS011;31343;47.520;19.144;2022-10-16T08:40:16;8.65;;;5.53;;
45618;SDS011;31343;47.520;19.144;2022-10-16T08:45:31;10.70;;;5.10;;
45618;SDS011;31343;47.520;19.144;2022-10-16T08:48:09;9.20;;;4.63;;
45618;SDS011;31343;47.520;19.144;2022-10-16T08:50:47;6.90;;;5.28;;
45618;SDS011;31343;47.520;19.144;2022-10-16T08:53:16;8.98;;;5.40;;
45618;SDS011;31343;47.520;19.144;2022-10-16T08:55:54;7.55;;;4.78;;
45618;SDS011;31343;47.520;19.144;2022-10-16T08:58:21;6.65;;;4.80;;
45618;SDS011;31343;47.520;19.144;2022-10-16T09:00:55;7.35;;;4.93;;
45618;SDS011;31343;47.520;19.144;2022-10-16T09:03:29;8.07;;;5.40;;
45618;SDS011;31343;47.520;19.144;2022-10-16T09:06:13;6.93;;;4.85;;
45618;SDS011;31343;47.520;19.144;2022-10-16T09:09:05;9.15;;;5.25;;
45618;SDS011;31343;47.520;19.144;2022-10-16T09:11:52;7.50;;;4.40;;
45618;SDS011;31343;47.520;19.144;2022-10-16T09:14:58;8.65;;;4.95;;
45618;SDS011;31343;47.520;19.144;2022-10-16T09:17:50;9.40;;;4.72;;
45618;SDS011;31343;47.520;19.144;2022-10-16T09:20:26;9.07;;;4.63;;
45618;SDS011;31343;47.520;19.144;2022-10-16T09:25:30;12.00;;;5.90;;
45618;SDS011;31343;47.520;19.144;2022-10-16T09:27:57;7.40;;;4.50;;
45618;SDS011;31343;47.520;19.144;2022-10-16T09:30:26;7.60;;;5.07;;
45618;SDS011;31343;47.520;19.144;2022-10-16T09:32:54;9.93;;;5.57;;
45618;SDS011;31343;47.520;19.144;2022-10-16T09:35:24;7.10;;;4.75;;
45618;SDS011;31343;47.520;19.144;2022-10-16T09:38:02;8.32;;;5.82;;
45618;SDS011;31343;47.520;19.144;2022-10-16T09:40:29;7.25;;;4.95;;
45618;SDS011;31343;47.520;19.144;2022-10-16T09:45:52;6.60;;;4.57;;
45618;SDS011;31343;47.520;19.144;2022-10-16T09:48:23;9.50;;;5.45;;
45618;SDS011;31343;47.520;19.144;2022-10-16T09:50:57;10.35;;;4.55;;
45618;SDS011;31343;47.520;19.144;2022-10-16T09:53:53;6.07;;;4.40;;
45618;SDS011;31343;47.520;19.144;2022-10-16T09:56:23;6.55;;;4.25;;
45618;SDS011;31343;47.520;19.144;2022-10-16T09:58:52;7.20;;;5.10;;
45618;SDS011;31343;47.520;19.144;2022-10-16T10:01:19;7.40;;;4.82;;
45618;SDS011;31343;47.520;19.144;2022-10-16T10:03:47;6.35;;;4.38;;
45618;SDS011;31343;47.520;19.144;2022-10-16T10:08:53;7.25;;;5.63;;
45618;SDS011;31343;47.520;19.144;2022-10-16T10:14:23;7.35;;;4.20;;
45618;SDS011;31343;47.520;19.144;2022-10-16T10:22:11;7.60;;;4.07;;
45618;SDS011;31343;47.520;19.144;2022-10-16T10:27:49;6.63;;;3.95;;
45618;SDS011;31343;47.520;19.144;2022-10-16T10:30:41;6.00;;;4.32;;
45618;SDS011;31343;47.520;19.144;2022-10-16T10:46:50;5.53;;;3.85;;
45618;SDS011;31343;47.520;19.144;2022-10-16T10:49:34;6.20;;;3.90;;
45618;SDS011;31343;47.520;19.144;2022-10-16T10:55:27;4.82;;;3.50;;
45618;SDS011;31343;47.520;19.144;2022-10-16T11:00:43;6.70;;;3.83;;
45618;SDS011;31343;47.520;19.144;2022-10-16T11:06:18;6.90;;;4.00;;
45618;SDS011;31343;47.520;19.144;2022-10-16T11:09:36;4.57;;;3.33;;
45618;SDS011;31343;47.520;19.144;2022-10-16T11:14:23;5.57;;;3.78;;
45618;SDS011;31343;47.520;19.144;2022-10-16T11:17:00;5.75;;;3.85;;
45618;SDS011;31343;47.520;19.144;2022-10-16T11:19:44;5.93;;;4.00;;
45618;SDS011;31343;47.520;19.144;2022-10-16T11:22:29;5.85;;;3.70;;
45618;SDS011;31343;47.520;19.144;2022-10-16T11:33:43;4.50;;;3.20;;
45618;SDS011;31343;47.520;19.144;2022-10-16T11:36:23;4.85;;;2.85;;
45618;SDS011;31343;47.520;19.144;2022-10-16T11:39:37;5.03;;;3.42;;
45618;SDS011;31343;47.520;19.144;2022-10-16T11:42:02;7.07;;;3.33;;
45618;SDS011;31343;47.520;19.144;2022-10-16T11:50:03;5.00;;;3.08;;
45618;SDS011;31343;47.520;19.144;2022-10-16T11:55:24;5.13;;;3.40;;
45618;SDS011;31343;47.520;19.144;2022-10-16T11:58:40;5.30;;;3.35;;
45618;SDS011;31343;47.520;19.144;2022-10-16T12:08:52;4.45;;;2.65;;
45618;SDS011;31343;47.520;19.144;2022-10-16T12:16:51;5.47;;;2.90;;
45618;SDS011;31343;47.520;19.144;2022-10-16T12:19:17;4.82;;;3.28;;
45618;SDS011;31343;47.520;19.144;2022-10-16T12:21:45;5.15;;;2.80;;
45618;SDS011;31343;47.520;19.144;2022-10-16T12:24:21;4.47;;;2.80;;
45618;SDS011;31343;47.520;19.144;2022-10-16T12:26:47;6.13;;;3.72;;
45618;SDS011;31343;47.520;19.144;2022-10-16T12:32:03;4.72;;;3.22;;
45618;SDS011;31343;47.520;19.144;2022-10-16T12:37:11;4.25;;;3.22;;
45618;SDS011;31343;47.520;19.144;2022-10-16T12:39:44;20.98;;;13.35;;
45618;SDS011;31343;47.520;19.144;2022-10-16T12:44:55;5.78;;;3.28;;
45618;SDS011;31343;47.520;19.144;2022-10-16T12:47:23;5.40;;;2.70;;
45618;SDS011;31343;47.520;19.144;2022-10-16T12:49:55;7.05;;;3.05;;
45618;SDS011;31343;47.520;19.144;2022-10-16T12:52:26;6.28;;;2.70;;
45618;SDS011;31343;47.520;19.144;2022-10-16T12:54:58;10.90;;;3.92;;
45618;SDS011;31343;47.520;19.144;2022-10-16T12:57:33;4.93;;;2.58;;
45618;SDS011;31343;47.520;19.144;2022-10-16T13:00:26;3.83;;;2.85;;
45618;SDS011;31343;47.520;19.144;2022-10-16T13:09:02;4.63;;;2.53;;
45618;SDS011;31343;47.520;19.144;2022-10-16T13:25:21;4.60;;;2.80;;
45618;SDS011;31343;47.520;19.144;2022-10-16T13:27:56;5.70;;;3.10;;
45618;SDS011;31343;47.520;19.144;2022-10-16T13:30:33;5.93;;;3.10;;
45618;SDS011;31343;47.520;19.144;2022-10-16T13:33:27;4.05;;;2.55;;
45618;SDS011;31343;47.520;19.144;2022-10-16T13:35:52;3.88;;;2.65;;
45618;SDS011;31343;47.520;19.144;2022-10-16T13:38:21;5.20;;;2.90;;
45618;SDS011;31343;47.520;19.144;2022-10-16T13:41:00;5.00;;;2.92;;
45618;SDS011;31343;47.520;19.144;2022-10-16T13:43:28;3.92;;;2.55;;
45618;SDS011;31343;47.520;19.144;2022-10-16T13:46:02;4.65;;;2.70;;
45618;SDS011;31343;47.520;19.144;2022-10-16T13:48:30;4.72;;;2.60;;
45618;SDS011;31343;47.520;19.144;2022-10-16T13:51:01;5.00;;;2.90;;
45618;SDS011;31343;47.520;19.144;2022-10-16T13:53:32;4.38;;;3.08;;
45618;SDS011;31343;47.520;19.144;2022-10-16T13:55:59;4.18;;;3.03;;
45618;SDS011;31343;47.520;19.144;2022-10-16T13:58:26;5.18;;;3.10;;
45618;SDS011;31343;47.520;19.144;2022-10-16T14:01:02;4.75;;;2.92;;
45618;SDS011;31343;47.520;19.144;2022-10-16T14:03:49;5.57;;;3.33;;
45618;SDS011;31343;47.520;19.144;2022-10-16T14:06:17;6.38;;;3.20;;
45618;SDS011;31343;47.520;19.144;2022-10-16T14:08:52;4.30;;;2.70;;
45618;SDS011;31343;47.520;19.144;2022-10-16T14:11:24;3.78;;;2.60;;
45618;SDS011;31343;47.520;19.144;2022-10-16T14:13:50;6.40;;;2.72;;
45618;SDS011;31343;47.520;19.144;2022-10-16T14:16:18;6.43;;;3.03;;
45618;SDS011;31343;47.520;19.144;2022-10-16T14:18:50;4.05;;;2.83;;
45618;SDS011;31343;47.520;19.144;2022-10-16T14:21:21;4.32;;;2.67;;
45618;SDS011;31343;47.520;19.144;2022-10-16T14:23:46;4.03;;;2.67;;
45618;SDS011;31343;47.520;19.144;2022-10-16T14:28:40;6.05;;;3.20;;
45618;SDS011;31343;47.520;19.144;2022-10-16T14:33:58;4.18;;;2.72;;
45618;SDS011;31343;47.520;19.144;2022-10-16T14:36:25;4.78;;;2.90;;
45618;SDS011;31343;47.520;19.144;2022-10-16T14:39:02;5.10;;;2.90;;
45618;SDS011;31343;47.520;19.144;2022-10-16T14:41:46;3.10;;;2.28;;
45618;SDS011;31343;47.520;19.144;2022-10-16T14:44:14;6.13;;;3.67;;
45618;SDS011;31343;47.520;19.144;2022-10-16T14:46:42;4.43;;;3.20;;
45618;SDS011;31343;47.520;19.144;2022-10-16T14:51:35;4.68;;;3.08;;
45618;SDS011;31343;47.520;19.144;2022-10-16T14:54:01;5.50;;;2.88;;
45618;SDS011;31343;47.520;19.144;2022-10-16T14:56:41;5.18;;;3.20;;
45618;SDS011;31343;47.520;19.144;2022-10-16T14:59:19;4.93;;;3.22;;
45618;SDS011;31343;47.520;19.144;2022-10-16T15:01:45;3.67;;;2.70;;
45618;SDS011;31343;47.520;19.144;2022-10-16T15:04:12;4.95;;;2.80;;
45618;SDS011;31343;47.520;19.144;2022-10-16T15:06:38;5.80;;;2.72;;
45618;SDS011;31343;47.520;19.144;2022-10-16T15:09:04;4.88;;;2.50;;
45618;SDS011;31343;47.520;19.144;2022-10-16T15:11:29;5.45;;;3.35;;
45618;SDS011;31343;47.520;19.144;2022-10-16T15:13:57;5.55;;;2.60;;
45618;SDS011;31343;47.520;19.144;2022-10-16T15:16:23;4.82;;;2.78;;
45618;SDS011;31343;47.520;19.144;2022-10-16T15:18:49;5.03;;;2.88;;
45618;SDS011;31343;47.520;19.144;2022-10-16T15:21:21;5.05;;;3.00;;
45618;SDS011;31343;47.520;19.144;2022-10-16T15:23:55;3.70;;;2.75;;
45618;SDS011;31343;47.520;19.144;2022-10-16T15:26:22;7.18;;;2.92;;
45618;SDS011;31343;47.520;19.144;2022-10-16T15:28:48;4.85;;;3.40;;
45618;SDS011;31343;47.520;19.144;2022-10-16T15:31:14;5.93;;;2.88;;
45618;SDS011;31343;47.520;19.144;2022-10-16T15:33:40;6.07;;;2.97;;
45618;SDS011;31343;47.520;19.144;2022-10-16T15:36:06;6.60;;;3.00;;
45618;SDS011;31343;47.520;19.144;2022-10-16T15:38:31;5.60;;;2.92;;
45618;SDS011;31343;47.520;19.144;2022-10-16T15:40:57;5.03;;;3.58;;
45618;SDS011;31343;47.520;19.144;2022-10-16T15:43:23;4.68;;;2.97;;
45618;SDS011;31343;47.520;19.144;2022-10-16T15:46:02;5.82;;;3.38;;
45618;SDS011;31343;47.520;19.144;2022-10-16T15:48:30;4.90;;;3.05;;
45618;SDS011;31343;47.520;19.144;2022-10-16T15:50:57;6.70;;;3.20;;
45618;SDS011;31343;47.520;19.144;2022-10-16T15:53:23;5.35;;;3.30;;
45618;SDS011;31343;47.520;19.144;2022-10-16T15:55:49;4.88;;;2.70;;
45618;SDS011;31343;47.520;19.144;2022-10-16T15:58:14;7.72;;;3.10;;
45618;SDS011;31343;47.520;19.144;2022-10-16T16:00:40;4.38;;;3.63;;
45618;SDS011;31343;47.520;19.144;2022-10-16T16:03:06;5.50;;;3.88;;
45618;SDS011;31343;47.520;19.144;2022-10-16T16:05:31;6.30;;;3.97;;
45618;SDS011;31343;47.520;19.144;2022-10-16T16:07:58;10.48;;;7.20;;
45618;SDS011;31343;47.520;19.144;2022-10-16T16:10:24;13.52;;;7.43;;
45618;SDS011;31343;47.520;19.144;2022-10-16T16:12:50;20.30;;;13.40;;
45618;SDS011;31343;47.520;19.144;2022-10-16T16:15:19;20.10;;;13.10;;
45618;SDS011;31343;47.520;19.144;2022-10-16T16:17:46;18.48;;;12.20;;
45618;SDS011;31343;47.520;19.144;2022-10-16T16:20:12;16.48;;;9.20;;
45618;SDS011;31343;47.520;19.144;2022-10-16T16:22:38;18.17;;;11.68;;
45618;SDS011;31343;47.520;19.144;2022-10-16T16:25:04;23.05;;;13.52;;
45618;SDS011;31343;47.520;19.144;2022-10-16T16:27:30;19.60;;;12.85;;
45618;SDS011;31343;47.520;19.144;2022-10-16T16:29:58;18.67;;;13.00;;
45618;SDS011;31343;47.520;19.144;2022-10-16T16:32:25;17.30;;;11.07;;
45618;SDS011;31343;47.520;19.144;2022-10-16T16:34:50;19.30;;;12.18;;
45618;SDS011;31343;47.520;19.144;2022-10-16T16:37:16;16.30;;;10.88;;
45618;SDS011;31343;47.520;19.144;2022-10-16T16:39:42;20.45;;;10.75;;
45618;SDS011;31343;47.520;19.144;2022-10-16T16:42:08;18.40;;;10.05;;
45618;SDS011;31343;47.520;19.144;2022-10-16T16:44:35;17.60;;;10.85;;
45618;SDS011;31343;47.520;19.144;2022-10-16T16:47:01;17.20;;;10.18;;
45618;SDS011;31343;47.520;19.144;2022-10-16T16:49:28;13.93;;;9.77;;